sensor_id;sensor_type;location;lat;lon;timestamp;P1;durP1;ratioP1;P2;durP2;ratioP2
66567;SDS011;53422;49.296;6.900;2022-07-23T00:02:05;8.52;;;4.63;;
66567;SDS011;53422;49.296;6.900;2022-07-23T00:04:32;9.93;;;4.40;;
66567;SDS011;53422;49.296;6.900;2022-07-23T00:06:57;7.25;;;4.47;;
66567;SDS011;53422;49.296;6.900;2022-07-23T00:09:23;6.63;;;4.65;;
66567;SDS011;53422;49.296;6.900;2022-07-23T00:11:49;7.97;;;3.97;;
66567;SDS011;53422;49.296;6.900;2022-07-23T00:14:14;8.15;;;4.82;;
66567;SDS011;53422;49.296;6.900;2022-07-23T00:16:40;7.38;;;4.30;;
66567;SDS011;53422;49.296;6.900;2022-07-23T00:19:05;7.68;;;4.78;;
66567;SDS011;53422;49.296;6.900;2022-07-23T00:21:31;6.80;;;4.43;;
66567;SDS011;53422;49.296;6.900;2022-07-23T00:23:57;10.80;;;4.93;;
66567;SDS011;53422;49.296;6.900;2022-07-23T00:26:22;7.10;;;5.05;;
66567;SDS011;53422;49.296;6.900;2022-07-23T00:28:48;6.30;;;4.10;;
66567;SDS011;53422;49.296;6.900;2022-07-23T00:31:13;8.15;;;4.13;;
66567;SDS011;53422;49.296;6.900;2022-07-23T00:33:39;7.30;;;4.80;;
66567;SDS011;53422;49.296;6.900;2022-07-23T00:36:05;8.10;;;5.20;;
66567;SDS011;53422;49.296;6.900;2022-07-23T00:38:30;9.18;;;5.07;;
66567;SDS011;53422;49.296;6.900;2022-07-23T00:40:56;8.23;;;5.03;;
66567;SDS011;53422;49.296;6.900;2022-07-23T00:43:22;7.88;;;5.05;;
66567;SDS011;53422;49.296;6.900;2022-07-23T00:45:48;8.52;;;4.68;;
66567;SDS011;53422;49.296;6.900;2022-07-23T00:48:14;10.40;;;5.65;;
66567;SDS011;53422;49.296;6.900;2022-07-23T00:50:40;10.27;;;5.35;;
66567;SDS011;53422;49.296;6.900;2022-07-23T00:53:06;9.88;;;5.43;;
66567;SDS011;53422;49.296;6.900;2022-07-23T00:55:33;9.55;;;5.38;;
66567;SDS011;53422;49.296;6.900;2022-07-23T00:57:59;8.85;;;5.20;;
66567;SDS011;53422;49.296;6.900;2022-07-23T01:00:25;10.13;;;5.70;;
66567;SDS011;53422;49.296;6.900;2022-07-23T01:02:51;11.00;;;5.53;;
66567;SDS011;53422;49.296;6.900;2022-07-23T01:05:17;10.48;;;5.53;;
66567;SDS011;53422;49.296;6.900;2022-07-23T01:07:47;10.02;;;5.88;;
66567;SDS011;53422;49.296;6.900;2022-07-23T01:10:13;9.02;;;5.63;;
66567;SDS011;53422;49.296;6.900;2022-07-23T01:13:07;9.82;;;5.90;;
66567;SDS011;53422;49.296;6.900;2022-07-23T01:15:35;8.73;;;5.55;;
66567;SDS011;53422;49.296;6.900;2022-07-23T01:18:02;10.43;;;5.85;;
66567;SDS011;53422;49.296;6.900;2022-07-23T01:20:29;8.95;;;5.55;;
66567;SDS011;53422;49.296;6.900;2022-07-23T01:22:55;14.65;;;6.78;;
66567;SDS011;53422;49.296;6.900;2022-07-23T01:25:21;10.25;;;5.97;;
66567;SDS011;53422;49.296;6.900;2022-07-23T01:27:48;10.43;;;5.65;;
66567;SDS011;53422;49.296;6.900;2022-07-23T01:30:13;9.52;;;5.90;;
66567;SDS011;53422;49.296;6.900;2022-07-23T01:32:39;9.68;;;5.97;;
66567;SDS011;53422;49.296;6.900;2022-07-23T01:35:06;9.98;;;5.82;;
66567;SDS011;53422;49.296;6.900;2022-07-23T01:37:32;10.13;;;5.72;;
66567;SDS011;53422;49.296;6.900;2022-07-23T01:39:58;10.30;;;6.18;;
66567;SDS011;53422;49.296;6.900;2022-07-23T01:42:24;12.35;;;5.68;;
66567;SDS011;53422;49.296;6.900;2022-07-23T01:44:50;9.55;;;5.70;;
66567;SDS011;53422;49.296;6.900;2022-07-23T01:47:16;8.73;;;5.70;;
66567;SDS011;53422;49.296;6.900;2022-07-23T01:49:41;8.88;;;5.43;;
66567;SDS011;53422;49.296;6.900;2022-07-23T01:52:07;13.00;;;5.95;;
66567;SDS011;53422;49.296;6.900;2022-07-23T01:54:36;11.35;;;5.90;;
66567;SDS011;53422;49.296;6.900;2022-07-23T01:57:03;10.57;;;6.18;;
66567;SDS011;53422;49.296;6.900;2022-07-23T01:59:29;9.90;;;5.20;;
66567;SDS011;53422;49.296;6.900;2022-07-23T02:01:55;9.48;;;5.35;;
66567;SDS011;53422;49.296;6.900;2022-07-23T02:04:21;10.68;;;5.55;;
66567;SDS011;53422;49.296;6.900;2022-07-23T02:06:47;10.60;;;5.88;;
66567;SDS011;53422;49.296;6.900;2022-07-23T02:09:13;9.93;;;6.13;;
66567;SDS011;53422;49.296;6.900;2022-07-23T02:11:39;11.05;;;5.93;;
66567;SDS011;53422;49.296;6.900;2022-07-23T02:14:05;8.63;;;5.72;;
66567;SDS011;53422;49.296;6.900;2022-07-23T02:16:30;9.43;;;5.32;;
66567;SDS011;53422;49.296;6.900;2022-07-23T02:18:56;11.35;;;5.95;;
66567;SDS011;53422;49.296;6.900;2022-07-23T02:21:22;9.38;;;5.90;;
66567;SDS011;53422;49.296;6.900;2022-07-23T02:23:47;10.73;;;5.97;;
66567;SDS011;53422;49.296;6.900;2022-07-23T02:26:14;11.27;;;6.05;;
66567;SDS011;53422;49.296;6.900;2022-07-23T02:28:39;11.15;;;5.80;;
66567;SDS011;53422;49.296;6.900;2022-07-23T02:31:05;10.27;;;6.10;;
66567;SDS011;53422;49.296;6.900;2022-07-23T02:33:31;9.90;;;5.55;;
66567;SDS011;53422;49.296;6.900;2022-07-23T02:35:57;13.32;;;6.25;;
66567;SDS011;53422;49.296;6.900;2022-07-23T02:38:23;9.32;;;6.45;;
66567;SDS011;53422;49.296;6.900;2022-07-23T02:40:49;10.23;;;5.53;;
66567;SDS011;53422;49.296;6.900;2022-07-23T02:43:14;11.52;;;6.53;;
66567;SDS011;53422;49.296;6.900;2022-07-23T02:45:40;8.88;;;6.07;;
66567;SDS011;53422;49.296;6.900;2022-07-23T02:48:05;9.95;;;6.05;;
66567;SDS011;53422;49.296;6.900;2022-07-23T02:50:31;10.30;;;5.85;;
66567;SDS011;53422;49.296;6.900;2022-07-23T02:52:56;12.07;;;6.03;;
66567;SDS011;53422;49.296;6.900;2022-07-23T02:55:22;11.05;;;6.13;;
66567;SDS011;53422;49.296;6.900;2022-07-23T02:57:48;14.05;;;6.63;;
66567;SDS011;53422;49.296;6.900;2022-07-23T03:00:14;11.93;;;6.32;;
66567;SDS011;53422;49.296;6.900;2022-07-23T03:02:39;10.93;;;6.50;;
66567;SDS011;53422;49.296;6.900;2022-07-23T03:05:05;10.50;;;6.38;;
66567;SDS011;53422;49.296;6.900;2022-07-23T03:07:31;10.52;;;6.28;;
66567;SDS011;53422;49.296;6.900;2022-07-23T03:09:56;9.68;;;6.25;;
66567;SDS011;53422;49.296;6.900;2022-07-23T03:12:22;11.07;;;6.28;;
66567;SDS011;53422;49.296;6.900;2022-07-23T03:14:48;10.27;;;6.20;;
66567;SDS011;53422;49.296;6.900;2022-07-23T03:17:13;9.77;;;6.15;;
66567;SDS011;53422;49.296;6.900;2022-07-23T03:19:39;9.32;;;5.93;;
66567;SDS011;53422;49.296;6.900;2022-07-23T03:22:04;10.88;;;6.32;;
66567;SDS011;53422;49.296;6.900;2022-07-23T03:24:30;11.48;;;6.25;;
66567;SDS011;53422;49.296;6.900;2022-07-23T03:27:14;9.82;;;6.25;;
66567;SDS011;53422;49.296;6.900;2022-07-23T03:29:40;11.07;;;5.97;;
66567;SDS011;53422;49.296;6.900;2022-07-23T03:32:06;11.95;;;6.43;;
66567;SDS011;53422;49.296;6.900;2022-07-23T03:34:32;9.43;;;5.72;;
66567;SDS011;53422;49.296;6.900;2022-07-23T03:36:57;11.65;;;6.63;;
66567;SDS011;53422;49.296;6.900;2022-07-23T03:39:23;9.52;;;6.18;;
66567;SDS011;53422;49.296;6.900;2022-07-23T03:41:49;12.65;;;6.60;;
66567;SDS011;53422;49.296;6.900;2022-07-23T03:44:14;9.98;;;7.07;;
66567;SDS011;53422;49.296;6.900;2022-07-23T03:46:40;11.60;;;7.13;;
66567;SDS011;53422;49.296;6.900;2022-07-23T03:49:05;11.63;;;6.78;;
66567;SDS011;53422;49.296;6.900;2022-07-23T03:51:31;11.85;;;6.85;;
66567;SDS011;53422;49.296;6.900;2022-07-23T03:53:57;11.38;;;6.20;;
66567;SDS011;53422;49.296;6.900;2022-07-23T03:56:23;10.05;;;6.43;;
66567;SDS011;53422;49.296;6.900;2022-07-23T03:58:48;11.13;;;6.07;;
66567;SDS011;53422;49.296;6.900;2022-07-23T04:01:14;10.43;;;6.40;;
66567;SDS011;53422;49.296;6.900;2022-07-23T04:03:40;10.82;;;6.65;;
66567;SDS011;53422;49.296;6.900;2022-07-23T04:06:06;11.88;;;6.75;;
66567;SDS011;53422;49.296;6.900;2022-07-23T04:08:31;11.48;;;6.80;;
66567;SDS011;53422;49.296;6.900;2022-07-23T04:10:57;11.30;;;6.75;;
66567;SDS011;53422;49.296;6.900;2022-07-23T04:13:22;10.02;;;6.00;;
66567;SDS011;53422;49.296;6.900;2022-07-23T04:15:48;9.35;;;6.57;;
66567;SDS011;53422;49.296;6.900;2022-07-23T04:18:15;10.00;;;6.45;;
66567;SDS011;53422;49.296;6.900;2022-07-23T04:20:46;10.73;;;5.95;;
66567;SDS011;53422;49.296;6.900;2022-07-23T04:23:12;11.65;;;6.45;;
66567;SDS011;53422;49.296;6.900;2022-07-23T04:25:38;13.50;;;6.35;;
66567;SDS011;53422;49.296;6.900;2022-07-23T04:28:04;9.75;;;6.40;;
66567;SDS011;53422;49.296;6.900;2022-07-23T04:30:29;9.68;;;6.25;;
66567;SDS011;53422;49.296;6.900;2022-07-23T04:32:55;11.18;;;6.10;;
66567;SDS011;53422;49.296;6.900;2022-07-23T04:35:21;10.85;;;6.32;;
66567;SDS011;53422;49.296;6.900;2022-07-23T04:37:46;9.68;;;5.70;;
66567;SDS011;53422;49.296;6.900;2022-07-23T04:40:12;11.27;;;6.32;;
66567;SDS011;53422;49.296;6.900;2022-07-23T04:42:38;11.77;;;6.38;;
66567;SDS011;53422;49.296;6.900;2022-07-23T04:45:04;10.50;;;5.85;;
66567;SDS011;53422;49.296;6.900;2022-07-23T04:47:30;14.40;;;6.43;;
66567;SDS011;53422;49.296;6.900;2022-07-23T04:49:56;13.15;;;6.30;;
66567;SDS011;53422;49.296;6.900;2022-07-23T04:52:22;11.15;;;6.10;;
66567;SDS011;53422;49.296;6.900;2022-07-23T04:54:48;10.32;;;6.28;;
66567;SDS011;53422;49.296;6.900;2022-07-23T04:57:14;9.55;;;6.22;;
66567;SDS011;53422;49.296;6.900;2022-07-23T04:59:40;9.13;;;6.28;;
66567;SDS011;53422;49.296;6.900;2022-07-23T05:02:05;10.20;;;5.95;;
66567;SDS011;53422;49.296;6.900;2022-07-23T05:04:31;11.73;;;6.28;;
66567;SDS011;53422;49.296;6.900;2022-07-23T05:06:57;12.90;;;6.20;;
66567;SDS011;53422;49.296;6.900;2022-07-23T05:09:23;12.15;;;6.28;;
66567;SDS011;53422;49.296;6.900;2022-07-23T05:11:49;9.60;;;6.13;;
66567;SDS011;53422;49.296;6.900;2022-07-23T05:14:14;9.35;;;6.18;;
66567;SDS011;53422;49.296;6.900;2022-07-23T05:16:40;10.15;;;6.32;;
66567;SDS011;53422;49.296;6.900;2022-07-23T05:19:06;10.35;;;5.72;;
66567;SDS011;53422;49.296;6.900;2022-07-23T05:21:31;9.95;;;5.82;;
66567;SDS011;53422;49.296;6.900;2022-07-23T05:23:57;11.93;;;6.00;;
66567;SDS011;53422;49.296;6.900;2022-07-23T05:26:23;11.55;;;6.32;;
66567;SDS011;53422;49.296;6.900;2022-07-23T05:28:49;11.18;;;7.00;;
66567;SDS011;53422;49.296;6.900;2022-07-23T05:31:15;11.95;;;6.53;;
66567;SDS011;53422;49.296;6.900;2022-07-23T05:33:41;13.80;;;6.43;;
66567;SDS011;53422;49.296;6.900;2022-07-23T05:36:06;11.82;;;6.75;;
66567;SDS011;53422;49.296;6.900;2022-07-23T05:38:32;10.05;;;6.80;;
66567;SDS011;53422;49.296;6.900;2022-07-23T05:40:58;11.35;;;6.13;;
66567;SDS011;53422;49.296;6.900;2022-07-23T05:43:24;14.45;;;6.75;;
66567;SDS011;53422;49.296;6.900;2022-07-23T05:45:50;14.50;;;6.85;;
66567;SDS011;53422;49.296;6.900;2022-07-23T05:48:15;11.77;;;7.03;;
66567;SDS011;53422;49.296;6.900;2022-07-23T05:50:41;12.63;;;7.25;;
66567;SDS011;53422;49.296;6.900;2022-07-23T05:53:07;13.60;;;7.53;;
66567;SDS011;53422;49.296;6.900;2022-07-23T05:55:32;16.75;;;7.93;;
66567;SDS011;53422;49.296;6.900;2022-07-23T05:57:59;14.85;;;7.88;;
66567;SDS011;53422;49.296;6.900;2022-07-23T06:00:25;13.95;;;7.82;;
66567;SDS011;53422;49.296;6.900;2022-07-23T06:02:52;13.57;;;7.22;;
66567;SDS011;53422;49.296;6.900;2022-07-23T06:05:18;13.30;;;7.15;;
66567;SDS011;53422;49.296;6.900;2022-07-23T06:07:44;13.38;;;7.30;;
66567;SDS011;53422;49.296;6.900;2022-07-23T06:10:10;14.20;;;7.68;;
66567;SDS011;53422;49.296;6.900;2022-07-23T06:12:36;13.02;;;7.28;;
66567;SDS011;53422;49.296;6.900;2022-07-23T06:15:02;14.63;;;7.10;;
66567;SDS011;53422;49.296;6.900;2022-07-23T06:17:29;15.02;;;7.72;;
66567;SDS011;53422;49.296;6.900;2022-07-23T06:19:55;15.10;;;7.57;;
66567;SDS011;53422;49.296;6.900;2022-07-23T06:22:21;15.70;;;8.18;;
66567;SDS011;53422;49.296;6.900;2022-07-23T06:24:47;15.05;;;7.88;;
66567;SDS011;53422;49.296;6.900;2022-07-23T06:27:13;12.57;;;7.47;;
66567;SDS011;53422;49.296;6.900;2022-07-23T06:29:39;13.55;;;7.60;;
66567;SDS011;53422;49.296;6.900;2022-07-23T06:32:06;13.57;;;7.55;;
66567;SDS011;53422;49.296;6.900;2022-07-23T06:34:32;14.57;;;8.25;;
66567;SDS011;53422;49.296;6.900;2022-07-23T06:36:58;13.10;;;7.20;;
66567;SDS011;53422;49.296;6.900;2022-07-23T06:39:24;14.25;;;7.28;;
66567;SDS011;53422;49.296;6.900;2022-07-23T06:41:49;11.60;;;6.88;;
66567;SDS011;53422;49.296;6.900;2022-07-23T06:44:15;12.95;;;6.97;;
66567;SDS011;53422;49.296;6.900;2022-07-23T06:46:41;10.70;;;6.40;;
66567;SDS011;53422;49.296;6.900;2022-07-23T06:49:06;11.30;;;6.68;;
66567;SDS011;53422;49.296;6.900;2022-07-23T06:51:32;11.35;;;6.40;;
66567;SDS011;53422;49.296;6.900;2022-07-23T06:53:58;9.77;;;5.53;;
66567;SDS011;53422;49.296;6.900;2022-07-23T06:56:24;12.25;;;7.15;;
66567;SDS011;53422;49.296;6.900;2022-07-23T06:58:49;10.88;;;6.47;;
66567;SDS011;53422;49.296;6.900;2022-07-23T07:01:15;9.20;;;5.85;;
66567;SDS011;53422;49.296;6.900;2022-07-23T07:03:41;10.43;;;5.70;;
66567;SDS011;53422;49.296;6.900;2022-07-23T07:06:07;8.57;;;5.30;;
66567;SDS011;53422;49.296;6.900;2022-07-23T07:08:32;9.85;;;6.00;;
66567;SDS011;53422;49.296;6.900;2022-07-23T07:10:58;11.07;;;6.05;;
66567;SDS011;53422;49.296;6.900;2022-07-23T07:13:24;11.18;;;5.85;;
66567;SDS011;53422;49.296;6.900;2022-07-23T07:15:49;12.65;;;6.07;;
66567;SDS011;53422;49.296;6.900;2022-07-23T07:18:15;10.05;;;6.38;;
66567;SDS011;53422;49.296;6.900;2022-07-23T07:20:41;9.68;;;5.80;;
66567;SDS011;53422;49.296;6.900;2022-07-23T07:23:07;12.07;;;6.15;;
66567;SDS011;53422;49.296;6.900;2022-07-23T07:25:32;11.63;;;6.20;;
66567;SDS011;53422;49.296;6.900;2022-07-23T07:27:58;10.88;;;6.32;;
66567;SDS011;53422;49.296;6.900;2022-07-23T07:30:23;10.27;;;6.32;;
66567;SDS011;53422;49.296;6.900;2022-07-23T07:32:49;14.00;;;7.85;;
66567;SDS011;53422;49.296;6.900;2022-07-23T07:35:15;12.30;;;6.63;;
66567;SDS011;53422;49.296;6.900;2022-07-23T07:37:40;13.02;;;6.78;;
66567;SDS011;53422;49.296;6.900;2022-07-23T07:40:06;17.23;;;7.90;;
66567;SDS011;53422;49.296;6.900;2022-07-23T07:42:32;16.50;;;6.80;;
66567;SDS011;53422;49.296;6.900;2022-07-23T07:44:58;13.60;;;7.53;;
66567;SDS011;53422;49.296;6.900;2022-07-23T07:47:24;16.17;;;7.68;;
66567;SDS011;53422;49.296;6.900;2022-07-23T07:49:50;12.20;;;7.35;;
66567;SDS011;53422;49.296;6.900;2022-07-23T07:52:15;10.52;;;6.65;;
66567;SDS011;53422;49.296;6.900;2022-07-23T07:54:41;11.73;;;6.63;;
66567;SDS011;53422;49.296;6.900;2022-07-23T07:57:08;10.30;;;6.40;;
66567;SDS011;53422;49.296;6.900;2022-07-23T07:59:34;11.60;;;6.15;;
66567;SDS011;53422;49.296;6.900;2022-07-23T08:02:00;11.30;;;6.72;;
66567;SDS011;53422;49.296;6.900;2022-07-23T08:04:26;13.18;;;7.80;;
66567;SDS011;53422;49.296;6.900;2022-07-23T08:06:52;13.10;;;7.78;;
66567;SDS011;53422;49.296;6.900;2022-07-23T08:09:18;17.80;;;8.00;;
66567;SDS011;53422;49.296;6.900;2022-07-23T08:11:43;14.55;;;7.68;;
66567;SDS011;53422;49.296;6.900;2022-07-23T08:14:09;13.90;;;8.00;;
66567;SDS011;53422;49.296;6.900;2022-07-23T08:16:36;16.17;;;7.47;;
66567;SDS011;53422;49.296;6.900;2022-07-23T08:19:01;14.00;;;6.93;;
66567;SDS011;53422;49.296;6.900;2022-07-23T08:21:27;13.82;;;8.70;;
66567;SDS011;53422;49.296;6.900;2022-07-23T08:23:53;12.48;;;8.13;;
66567;SDS011;53422;49.296;6.900;2022-07-23T08:26:18;13.18;;;8.05;;
66567;SDS011;53422;49.296;6.900;2022-07-23T08:28:44;15.30;;;8.23;;
66567;SDS011;53422;49.296;6.900;2022-07-23T08:31:09;15.60;;;7.28;;
66567;SDS011;53422;49.296;6.900;2022-07-23T08:33:39;12.48;;;7.20;;
66567;SDS011;53422;49.296;6.900;2022-07-23T08:36:05;12.00;;;7.65;;
66567;SDS011;53422;49.296;6.900;2022-07-23T08:38:31;16.42;;;7.45;;
66567;SDS011;53422;49.296;6.900;2022-07-23T08:40:58;14.00;;;7.80;;
66567;SDS011;53422;49.296;6.900;2022-07-23T08:43:24;12.68;;;6.80;;
66567;SDS011;53422;49.296;6.900;2022-07-23T08:45:53;12.63;;;7.60;;
66567;SDS011;53422;49.296;6.900;2022-07-23T08:48:24;14.48;;;7.05;;
66567;SDS011;53422;49.296;6.900;2022-07-23T08:50:55;10.85;;;6.45;;
66567;SDS011;53422;49.296;6.900;2022-07-23T08:53:22;10.63;;;7.00;;
66567;SDS011;53422;49.296;6.900;2022-07-23T08:55:49;9.27;;;5.93;;
66567;SDS011;53422;49.296;6.900;2022-07-23T08:58:17;10.52;;;5.97;;
66567;SDS011;53422;49.296;6.900;2022-07-23T09:00:43;12.40;;;6.47;;
66567;SDS011;53422;49.296;6.900;2022-07-23T09:03:17;12.88;;;6.07;;
66567;SDS011;53422;49.296;6.900;2022-07-23T09:05:45;10.73;;;6.20;;
66567;SDS011;53422;49.296;6.900;2022-07-23T09:08:15;9.80;;;6.43;;
66567;SDS011;53422;49.296;6.900;2022-07-23T09:16:17;9.70;;;6.07;;
66567;SDS011;53422;49.296;6.900;2022-07-23T09:18:45;10.30;;;6.35;;
66567;SDS011;53422;49.296;6.900;2022-07-23T09:24:03;12.63;;;6.53;;
66567;SDS011;53422;49.296;6.900;2022-07-23T09:36:55;11.23;;;6.10;;
66567;SDS011;53422;49.296;6.900;2022-07-23T09:39:29;10.40;;;5.95;;
66567;SDS011;53422;49.296;6.900;2022-07-23T09:41:57;11.68;;;6.65;;
66567;SDS011;53422;49.296;6.900;2022-07-23T09:44:40;12.55;;;6.57;;
66567;SDS011;53422;49.296;6.900;2022-07-23T09:47:07;10.10;;;6.13;;
66567;SDS011;53422;49.296;6.900;2022-07-23T09:49:32;11.18;;;6.40;;
66567;SDS011;53422;49.296;6.900;2022-07-23T09:51:59;8.90;;;5.38;;
66567;SDS011;53422;49.296;6.900;2022-07-23T09:59:39;10.18;;;5.45;;
66567;SDS011;53422;49.296;6.900;2022-07-23T10:02:06;9.07;;;5.43;;
66567;SDS011;53422;49.296;6.900;2022-07-23T10:04:33;9.95;;;5.60;;
66567;SDS011;53422;49.296;6.900;2022-07-23T10:07:00;9.40;;;5.35;;
66567;SDS011;53422;49.296;6.900;2022-07-23T10:09:29;7.60;;;4.85;;
66567;SDS011;53422;49.296;6.900;2022-07-23T10:11:57;6.90;;;5.18;;
66567;SDS011;53422;49.296;6.900;2022-07-23T10:14:55;7.60;;;5.43;;
66567;SDS011;53422;49.296;6.900;2022-07-23T10:17:22;9.52;;;5.35;;
66567;SDS011;53422;49.296;6.900;2022-07-23T10:19:48;9.68;;;5.57;;
66567;SDS011;53422;49.296;6.900;2022-07-23T10:22:15;9.32;;;5.97;;
66567;SDS011;53422;49.296;6.900;2022-07-23T10:30:28;8.10;;;5.38;;
66567;SDS011;53422;49.296;6.900;2022-07-23T10:36:15;8.52;;;5.18;;
66567;SDS011;53422;49.296;6.900;2022-07-23T10:41:37;7.25;;;4.85;;
66567;SDS011;53422;49.296;6.900;2022-07-23T10:46:53;7.85;;;4.38;;
66567;SDS011;53422;49.296;6.900;2022-07-23T10:49:30;8.35;;;4.72;;
66567;SDS011;53422;49.296;6.900;2022-07-23T10:54:43;9.75;;;4.50;;
66567;SDS011;53422;49.296;6.900;2022-07-23T10:57:15;8.35;;;4.97;;
66567;SDS011;53422;49.296;6.900;2022-07-23T11:02:49;7.82;;;5.13;;
66567;SDS011;53422;49.296;6.900;2022-07-23T11:05:18;7.35;;;5.30;;
66567;SDS011;53422;49.296;6.900;2022-07-23T11:10:39;9.13;;;4.78;;
66567;SDS011;53422;49.296;6.900;2022-07-23T11:19:08;9.63;;;5.75;;
66567;SDS011;53422;49.296;6.900;2022-07-23T11:37:06;7.55;;;4.88;;
66567;SDS011;53422;49.296;6.900;2022-07-23T11:39:36;8.57;;;5.07;;
66567;SDS011;53422;49.296;6.900;2022-07-23T11:42:03;7.50;;;4.80;;
66567;SDS011;53422;49.296;6.900;2022-07-23T11:44:32;8.82;;;5.32;;
66567;SDS011;53422;49.296;6.900;2022-07-23T11:49:33;7.57;;;4.57;;
66567;SDS011;53422;49.296;6.900;2022-07-23T11:52:02;13.93;;;5.95;;
66567;SDS011;53422;49.296;6.900;2022-07-23T11:54:29;6.45;;;4.55;;
66567;SDS011;53422;49.296;6.900;2022-07-23T11:56:56;6.95;;;4.85;;
66567;SDS011;53422;49.296;6.900;2022-07-23T11:59:23;7.32;;;4.70;;
66567;SDS011;53422;49.296;6.900;2022-07-23T12:02:01;7.45;;;4.65;;
66567;SDS011;53422;49.296;6.900;2022-07-23T12:07:23;9.27;;;4.80;;
66567;SDS011;53422;49.296;6.900;2022-07-23T12:10:00;8.40;;;4.93;;
66567;SDS011;53422;49.296;6.900;2022-07-23T12:12:42;7.75;;;4.63;;
66567;SDS011;53422;49.296;6.900;2022-07-23T12:15:11;7.40;;;4.38;;
66567;SDS011;53422;49.296;6.900;2022-07-23T12:17:38;7.43;;;4.68;;
66567;SDS011;53422;49.296;6.900;2022-07-23T12:20:07;8.20;;;4.63;;
66567;SDS011;53422;49.296;6.900;2022-07-23T12:22:41;7.10;;;4.55;;
66567;SDS011;53422;49.296;6.900;2022-07-23T12:27:36;8.98;;;4.35;;
66567;SDS011;53422;49.296;6.900;2022-07-23T12:30:18;7.85;;;4.65;;
66567;SDS011;53422;49.296;6.900;2022-07-23T12:32:48;7.10;;;4.82;;
66567;SDS011;53422;49.296;6.900;2022-07-23T12:35:15;6.65;;;4.70;;
66567;SDS011;53422;49.296;6.900;2022-07-23T12:37:42;7.05;;;4.40;;
66567;SDS011;53422;49.296;6.900;2022-07-23T12:42:58;7.53;;;4.70;;
66567;SDS011;53422;49.296;6.900;2022-07-23T12:45:26;7.50;;;4.70;;
66567;SDS011;53422;49.296;6.900;2022-07-23T12:47:54;6.63;;;4.47;;
66567;SDS011;53422;49.296;6.900;2022-07-23T12:51:15;7.50;;;4.38;;
66567;SDS011;53422;49.296;6.900;2022-07-23T12:53:18;8.48;;;4.80;;
66567;SDS011;53422;49.296;6.900;2022-07-23T12:55:49;8.65;;;4.95;;
66567;SDS011;53422;49.296;6.900;2022-07-23T12:58:22;7.95;;;4.97;;
66567;SDS011;53422;49.296;6.900;2022-07-23T13:03:20;7.28;;;4.57;;
66567;SDS011;53422;49.296;6.900;2022-07-23T13:06:06;6.97;;;4.00;;
66567;SDS011;53422;49.296;6.900;2022-07-23T13:08:37;6.60;;;4.57;;
66567;SDS011;53422;49.296;6.900;2022-07-23T13:11:04;7.18;;;4.00;;
66567;SDS011;53422;49.296;6.900;2022-07-23T13:13:32;6.80;;;4.20;;
66567;SDS011;53422;49.296;6.900;2022-07-23T13:15:59;6.25;;;4.10;;
66567;SDS011;53422;49.296;6.900;2022-07-23T13:18:26;7.65;;;4.25;;
66567;SDS011;53422;49.296;6.900;2022-07-23T13:23:19;5.72;;;4.18;;
66567;SDS011;53422;49.296;6.900;2022-07-23T13:25:45;5.90;;;3.85;;
66567;SDS011;53422;49.296;6.900;2022-07-23T13:28:11;5.22;;;3.15;;
66567;SDS011;53422;49.296;6.900;2022-07-23T13:30:37;5.38;;;3.65;;
66567;SDS011;53422;49.296;6.900;2022-07-23T13:33:04;6.85;;;3.80;;
66567;SDS011;53422;49.296;6.900;2022-07-23T13:35:30;6.32;;;4.20;;
66567;SDS011;53422;49.296;6.900;2022-07-23T13:37:56;5.57;;;3.80;;
66567;SDS011;53422;49.296;6.900;2022-07-23T13:40:22;6.55;;;3.90;;
66567;SDS011;53422;49.296;6.900;2022-07-23T13:42:47;5.50;;;3.42;;
66567;SDS011;53422;49.296;6.900;2022-07-23T13:45:13;6.75;;;4.25;;
66567;SDS011;53422;49.296;6.900;2022-07-23T13:47:39;6.88;;;3.92;;
66567;SDS011;53422;49.296;6.900;2022-07-23T13:50:05;8.10;;;3.70;;
66567;SDS011;53422;49.296;6.900;2022-07-23T13:52:31;6.93;;;4.15;;
66567;SDS011;53422;49.296;6.900;2022-07-23T13:54:59;6.30;;;3.80;;
66567;SDS011;53422;49.296;6.900;2022-07-23T13:57:29;5.82;;;3.97;;
66567;SDS011;53422;49.296;6.900;2022-07-23T13:59:56;10.05;;;3.90;;
66567;SDS011;53422;49.296;6.900;2022-07-23T14:02:21;7.70;;;4.30;;
66567;SDS011;53422;49.296;6.900;2022-07-23T14:04:47;5.75;;;3.63;;
66567;SDS011;53422;49.296;6.900;2022-07-23T14:07:13;7.63;;;4.65;;
66567;SDS011;53422;49.296;6.900;2022-07-23T14:09:39;7.43;;;4.43;;
66567;SDS011;53422;49.296;6.900;2022-07-23T14:12:07;6.78;;;4.00;;
66567;SDS011;53422;49.296;6.900;2022-07-23T14:14:34;7.70;;;4.50;;
66567;SDS011;53422;49.296;6.900;2022-07-23T14:17:00;7.57;;;4.75;;
66567;SDS011;53422;49.296;6.900;2022-07-23T14:19:26;6.15;;;4.28;;
66567;SDS011;53422;49.296;6.900;2022-07-23T14:21:53;6.60;;;4.72;;
66567;SDS011;53422;49.296;6.900;2022-07-23T14:24:22;8.27;;;5.03;;
66567;SDS011;53422;49.296;6.900;2022-07-23T14:26:56;6.35;;;4.60;;
66567;SDS011;53422;49.296;6.900;2022-07-23T14:29:22;8.20;;;4.90;;
66567;SDS011;53422;49.296;6.900;2022-07-23T14:31:49;9.55;;;5.10;;
66567;SDS011;53422;49.296;6.900;2022-07-23T14:34:15;7.53;;;4.63;;
66567;SDS011;53422;49.296;6.900;2022-07-23T14:36:43;6.22;;;4.70;;
66567;SDS011;53422;49.296;6.900;2022-07-23T14:39:14;7.07;;;4.68;;
66567;SDS011;53422;49.296;6.900;2022-07-23T14:41:41;6.55;;;4.30;;
66567;SDS011;53422;49.296;6.900;2022-07-23T14:44:10;9.60;;;4.80;;
66567;SDS011;53422;49.296;6.900;2022-07-23T14:46:36;6.72;;;4.82;;
66567;SDS011;53422;49.296;6.900;2022-07-23T14:49:02;8.00;;;4.82;;
66567;SDS011;53422;49.296;6.900;2022-07-23T14:51:31;7.53;;;5.10;;
66567;SDS011;53422;49.296;6.900;2022-07-23T14:53:56;9.18;;;5.07;;
66567;SDS011;53422;49.296;6.900;2022-07-23T14:56:25;7.20;;;4.47;;
66567;SDS011;53422;49.296;6.900;2022-07-23T14:58:51;6.18;;;4.75;;
66567;SDS011;53422;49.296;6.900;2022-07-23T15:01:16;6.43;;;4.90;;
66567;SDS011;53422;49.296;6.900;2022-07-23T15:03:42;6.97;;;4.82;;
66567;SDS011;53422;49.296;6.900;2022-07-23T15:06:09;6.78;;;4.43;;
66567;SDS011;53422;49.296;6.900;2022-07-23T15:08:35;8.73;;;4.93;;
66567;SDS011;53422;49.296;6.900;2022-07-23T15:11:01;9.40;;;5.07;;
66567;SDS011;53422;49.296;6.900;2022-07-23T15:13:26;7.97;;;5.10;;
66567;SDS011;53422;49.296;6.900;2022-07-23T15:15:55;8.40;;;4.68;;
66567;SDS011;53422;49.296;6.900;2022-07-23T15:18:58;8.02;;;5.38;;
66567;SDS011;53422;49.296;6.900;2022-07-23T15:21:24;8.60;;;5.07;;
66567;SDS011;53422;49.296;6.900;2022-07-23T15:23:55;9.57;;;4.68;;
66567;SDS011;53422;49.296;6.900;2022-07-23T15:26:24;9.60;;;5.43;;
66567;SDS011;53422;49.296;6.900;2022-07-23T15:28:51;6.72;;;5.05;;
66567;SDS011;53422;49.296;6.900;2022-07-23T15:31:40;7.43;;;4.90;;
66567;SDS011;53422;49.296;6.900;2022-07-23T15:34:06;9.45;;;4.80;;
66567;SDS011;53422;49.296;6.900;2022-07-23T15:36:35;8.15;;;4.82;;
66567;SDS011;53422;49.296;6.900;2022-07-23T15:39:02;7.30;;;5.00;;
66567;SDS011;53422;49.296;6.900;2022-07-23T15:41:28;7.57;;;4.80;;
66567;SDS011;53422;49.296;6.900;2022-07-23T15:43:54;8.27;;;4.60;;
66567;SDS011;53422;49.296;6.900;2022-07-23T15:46:20;8.30;;;5.20;;
66567;SDS011;53422;49.296;6.900;2022-07-23T15:48:53;10.00;;;4.93;;
66567;SDS011;53422;49.296;6.900;2022-07-23T15:51:22;7.45;;;5.70;;
66567;SDS011;53422;49.296;6.900;2022-07-23T15:53:53;6.32;;;4.43;;
66567;SDS011;53422;49.296;6.900;2022-07-23T15:56:19;7.03;;;4.82;;
66567;SDS011;53422;49.296;6.900;2022-07-23T15:58:55;8.20;;;4.90;;
66567;SDS011;53422;49.296;6.900;2022-07-23T16:01:21;7.13;;;5.18;;
66567;SDS011;53422;49.296;6.900;2022-07-23T16:03:49;9.25;;;4.60;;
66567;SDS011;53422;49.296;6.900;2022-07-23T16:06:15;9.15;;;5.40;;